Time;durP1;ratioP1;P1;durP2;ratioP2;P2;SDS_P1;SDS_P2;PMS_P1;PMS_P2;Temp;Humidity;BMP_temperature;BMP_pressure;BME280_temperature;BME280_humidity;BME280_pressure;Samples;Min_cycle;Max_cycle;Signal;HPM_P1;HPM_P2
2023/05/18 07:23:27;;;;;;;13.13;5.68;;;;;;;-145.79;50.77;78997.00;5322600;27;20125;-73
2023/05/18 07:25:58;;;;;;;8.25;5.28;;;;;;;-145.79;51.90;78973.69;5321712;28;20105;-73
2023/05/18 07:28:30;;;;;;;11.50;4.85;;;;;;;-145.79;50.94;78984.28;5322500;28;20015;-73
2023/05/18 07:31:03;;;;;;;6.97;4.22;;;;;;;-145.79;51.04;78971.56;5322320;28;20023;-74
2023/05/18 07:33:34;;;;;;;10.32;4.75;;;;;;;-145.79;50.50;78960.94;5311597;28;20436;-74
2023/05/18 07:36:06;;;;;;;10.70;6.40;;;;;;;-145.79;50.50;78958.84;5311014;28;20070;-75
2023/05/18 07:38:37;;;;;;;10.55;5.15;;;;;;;-145.79;51.41;78931.25;5301147;28;20032;-74
2023/05/18 07:41:09;;;;;;;8.45;4.93;;;;;;;-145.79;50.39;78950.34;5300092;28;20580;-73
2023/05/18 07:43:40;;;;;;;6.25;4.57;;;;;;;-145.79;50.98;78922.78;5299746;28;20059;-74
2023/05/18 07:46:12;;;;;;;9.55;5.10;;;;;;;-145.79;50.00;78924.91;5299789;28;20028;-72
2023/05/18 07:48:44;;;;;;;11.65;5.22;;;;;;;-145.79;50.23;78929.16;5300874;28;20048;-74
2023/05/18 07:51:15;;;;;;;8.88;5.13;;;;;;;-145.79;49.73;78939.75;5301148;28;20025;-73
2023/05/18 07:53:47;;;;;;;9.60;6.07;;;;;;;-145.79;49.61;78958.84;5300040;28;20024;-74
2023/05/18 07:56:18;;;;;;;11.52;5.35;;;;;;;-145.79;49.98;78944.00;5300472;28;20380;-74
2023/05/18 07:58:56;;;;;;;8.75;5.25;;;;;;;-145.79;50.45;78907.94;5300481;28;20371;-74
2023/05/18 08:01:29;;;;;;;9.98;5.38;;;;;;;-145.79;49.70;78886.75;5299585;28;20033;-73
2023/05/18 08:04:00;;;;;;;9.88;4.75;;;;;;;-145.79;49.17;78880.38;5300722;28;20024;-74
2023/05/18 08:06:31;;;;;;;7.93;4.80;;;;;;;-145.79;48.86;78880.38;5299939;28;20123;-74
2023/05/18 08:09:03;;;;;;;9.77;4.90;;;;;;;-145.79;48.78;78874.00;5317109;28;20044;-73
2023/05/18 08:11:35;;;;;;;14.32;5.47;;;;;;;-145.79;48.86;78863.41;5321701;28;20030;-73
2023/05/18 08:14:06;;;;;;;12.40;5.90;;;;;;;-145.79;49.29;78854.94;5320759;28;20054;-73
2023/05/18 08:16:37;;;;;;;9.88;5.47;;;;;;;-145.79;48.57;78837.97;5300725;28;20056;-74
2023/05/18 08:19:09;;;;;;;9.95;5.85;;;;;;;-145.79;47.56;78869.78;5300131;28;20029;-74
2023/05/18 08:21:40;;;;;;;23.77;17.48;;;;;;;-145.79;48.05;78871.91;5305666;28;20505;-73
2023/05/18 08:24:11;;;;;;;24.40;16.45;;;;;;;-145.79;47.62;78863.41;5322267;28;20475;-74
2023/05/18 08:26:43;;;;;;;11.43;6.20;;;;;;;-145.79;47.21;78850.69;5342606;28;20023;-74
2023/05/18 08:29:14;;;;;;;8.27;4.97;;;;;;;-145.79;47.34;78833.72;5341852;28;20061;-74
2023/05/18 08:31:45;;;;;;;13.35;6.10;;;;;;;-145.79;47.12;78829.47;5333960;28;20016;-74
2023/05/18 08:34:17;;;;;;;7.28;4.50;;;;;;;-145.79;46.91;78814.63;5309781;28;20442;-74
2023/05/18 08:36:48;;;;;;;10.32;5.50;;;;;;;-145.79;46.63;78814.63;5306173;28;20154;-75
2023/05/18 08:39:21;;;;;;;11.55;5.15;;;;;;;-145.79;46.67;78821.00;5307053;28;20020;-74
2023/05/18 08:42:20;;;;;;;12.25;5.10;;;;;;;-145.79;46.55;78808.28;5306705;28;20028;-74
2023/05/18 08:45:05;;;;;;;9.77;4.95;;;;;;;-145.79;46.67;78789.19;5305706;28;20040;-75
2023/05/18 08:47:37;;;;;;;9.68;5.38;;;;;;;-145.79;46.20;78780.72;5306828;28;20020;-74
2023/05/18 08:50:12;;;;;;;10.35;4.43;;;;;;;-145.79;45.84;78757.38;5305955;28;20024;-74
2023/05/18 08:52:47;;;;;;;10.32;4.75;;;;;;;-145.79;45.92;78729.81;5306323;28;20069;-74
2023/05/18 08:55:19;;;;;;;14.07;5.63;;;;;;;-145.79;44.81;78740.44;5306864;28;20467;-74
2023/05/18 08:57:58;;;;;;;15.55;7.05;;;;;;;-145.79;45.25;78742.53;5305002;28;20031;-74
2023/05/18 09:00:31;;;;;;;9.05;4.40;;;;;;;-145.79;44.67;78714.97;5327235;28;20164;-74
2023/05/18 09:03:04;;;;;;;8.98;4.32;;;;;;;-145.79;44.54;78708.63;5327054;28;20035;-74
2023/05/18 09:05:36;;;;;;;10.43;4.35;;;;;;;-145.79;44.58;78714.97;5327062;28;20026;-75
2023/05/18 09:08:08;;;;;;;9.55;4.07;;;;;;;-145.79;44.03;78714.97;5324798;28;20020;-75
2023/05/18 09:10:40;;;;;;;8.02;4.55;;;;;;;-145.79;44.53;78729.81;5305610;28;20085;-75
2023/05/18 09:13:13;;;;;;;11.40;3.65;;;;;;;-145.79;43.46;78734.06;5305807;28;20020;-75
2023/05/18 09:15:45;;;;;;;12.95;3.67;;;;;;;-145.79;43.36;78721.34;5311543;28;20028;-75
2023/05/18 09:18:16;;;;;;;8.18;3.85;;;;;;;-145.79;43.58;78698.03;5326361;28;20382;-75
2023/05/18 09:20:48;;;;;;;9.43;4.38;;;;;;;-145.79;43.12;78704.38;5324775;28;20478;-74
2023/05/18 09:23:19;;;;;;;8.75;4.10;;;;;;;-145.79;43.23;78695.91;5305501;28;20100;-74
2023/05/18 09:25:54;;;;;;;7.82;4.07;;;;;;;-145.79;42.57;78706.50;5304845;28;20020;-75
2023/05/18 09:28:31;;;;;;;9.77;4.15;;;;;;;-145.79;42.95;78678.94;5305517;28;20499;-74
2023/05/18 09:31:11;;;;;;;11.60;3.83;;;;;;;-145.79;42.54;78666.22;5305532;28;20055;-76
2023/05/18 09:33:44;;;;;;;11.90;4.40;;;;;;;-145.79;42.90;78655.63;5307070;28;20030;-75
2023/05/18 09:36:15;;;;;;;8.73;3.70;;;;;;;-145.79;41.94;78664.09;5305604;28;20031;-75
2023/05/18 09:38:47;;;;;;;8.75;4.07;;;;;;;-145.79;42.30;78657.75;5304513;28;20127;-74
2023/05/18 09:41:18;;;;;;;9.50;4.88;;;;;;;-145.79;41.82;78653.50;5305240;28;20076;-75
2023/05/18 09:43:53;;;;;;;11.65;5.20;;;;;;;-145.79;41.33;78653.50;5305298;28;20032;-75
2023/05/18 09:46:30;;;;;;;6.77;4.30;;;;;;;-145.79;42.05;78632.28;5308098;28;20028;-74
2023/05/18 09:49:03;;;;;;;7.15;3.88;;;;;;;-145.79;40.96;78611.09;5315152;28;20032;-74
2023/05/18 09:51:41;;;;;;;8.23;4.07;;;;;;;-145.79;40.74;78598.38;5326334;28;20423;-74
2023/05/18 09:54:12;;;;;;;12.23;4.20;;;;;;;-145.79;40.85;78572.94;5325928;28;20480;-74
2023/05/18 09:56:48;;;;;;;7.05;4.30;;;;;;;-145.79;40.50;78545.38;5313381;28;20012;-74
2023/05/18 09:59:19;;;;;;;;;;;;;;;-145.79;41.59;78509.31;5304992;28;20162;-75
2023/05/18 10:02:01;;;;;;;7.40;3.78;;;;;;;-145.79;41.13;78524.16;5304421;28;20011;-74
2023/05/18 10:04:40;;;;;;;5.80;3.25;;;;;;;-145.79;40.62;78515.69;5305116;28;20028;-74
2023/05/18 10:07:13;;;;;;;8.00;3.60;;;;;;;-145.79;40.43;78505.06;5313741;28;20463;-74
2023/05/18 10:09:45;;;;;;;10.45;4.43;;;;;;;-145.79;39.74;78488.13;5310074;28;20020;-75
2023/05/18 10:12:18;;;;;;;8.27;3.63;;;;;;;-145.79;40.04;78488.13;5304871;28;20028;-74
2023/05/18 10:14:49;;;;;;;8.15;3.50;;;;;;;-145.79;40.81;78471.16;5304166;28;20487;-74
2023/05/18 10:17:24;;;;;;;9.65;4.55;;;;;;;-145.79;39.78;78458.44;5304794;28;20026;-72
2023/05/18 10:19:56;;;;;;;5.20;3.38;;;;;;;-145.79;38.36;78483.88;5305003;28;20028;-73
2023/05/18 10:22:28;;;;;;;7.07;4.53;;;;;;;-145.79;39.03;78460.56;5303351;28;20046;-74
2023/05/18 10:25:02;;;;;;;10.23;4.63;;;;;;;-145.79;39.49;78447.84;5304072;28;20044;-74
2023/05/18 10:27:35;;;;;;;10.18;3.95;;;;;;;-145.79;39.36;78447.84;5303602;28;20515;-75
2023/05/18 10:30:08;;;;;;;6.70;4.15;;;;;;;-145.79;39.99;78435.09;5304751;28;20356;-74
2023/05/18 10:32:41;;;;;;;11.30;6.88;;;;;;;-145.79;39.03;78447.84;5303915;28;20024;-74
2023/05/18 10:35:13;;;;;;;11.55;4.65;;;;;;;-145.79;37.95;78488.13;5311004;28;20024;-74
2023/05/18 10:37:46;;;;;;;9.80;4.25;;;;;;;-145.79;38.89;78462.66;5325514;28;20335;-74
2023/05/18 10:40:19;;;;;;;9.27;4.13;;;;;;;-145.79;39.08;78466.91;5322245;28;20024;-74
2023/05/18 10:42:52;;;;;;;6.05;3.65;;;;;;;-145.79;39.33;78466.91;5303253;28;20028;-73
2023/05/18 10:45:25;;;;;;;9.18;5.18;;;;;;;-145.79;38.69;78458.44;5304499;28;20019;-73
2023/05/18 10:48:00;;;;;;;8.68;4.25;;;;;;;-145.79;39.22;78458.44;5304155;28;20420;-75
2023/05/18 10:50:32;;;;;;;12.50;5.57;;;;;;;-145.79;39.02;78483.88;5303465;28;20026;-75
2023/05/18 10:53:05;;;;;;;7.93;4.00;;;;;;;-145.79;39.58;78462.66;5304131;28;20027;-75
2023/05/18 10:55:36;;;;;;;8.45;3.47;;;;;;;-145.79;39.68;78454.19;5303279;28;20106;-74
2023/05/18 10:58:14;;;;;;;8.85;4.22;;;;;;;-145.79;38.11;78466.91;5312365;28;20114;-74
2023/05/18 11:00:50;;;;;;;10.45;4.07;;;;;;;-145.79;38.44;78483.88;5325240;28;20019;-75
2023/05/18 11:03:22;;;;;;;12.80;5.53;;;;;;;-145.79;38.73;78486.00;5324426;28;20161;-74
2023/05/18 11:06:09;;;;;;;11.65;4.72;;;;;;;-145.79;39.64;78443.59;5325272;28;20019;-75
2023/05/18 11:08:48;;;;;;;9.00;4.35;;;;;;;-145.79;39.53;78454.19;5318246;28;20051;-74
2023/05/18 11:11:25;;;;;;;7.78;4.50;;;;;;;-145.79;38.98;78454.19;5303359;28;20442;-71
2023/05/18 11:14:01;;;;;;;18.58;15.07;;;;;;;-145.79;38.72;78437.22;5303241;28;20031;-71
2023/05/18 11:16:34;;;;;;;11.75;7.97;;;;;;;-145.79;38.66;78441.47;5324681;28;20055;-71
2023/05/18 11:19:09;;;;;;;66.80;56.75;;;;;;;-145.79;37.71;78449.94;5310134;28;20054;-71
2023/05/18 11:21:41;;;;;;;11.85;8.95;;;;;;;-145.79;38.11;78426.63;5324512;28;20043;-71
2023/05/18 11:24:31;;;;;;;9.35;5.75;;;;;;;-145.79;38.64;78416.03;5313835;28;20028;-75
2023/05/18 11:27:15;;;;;;;8.20;4.60;;;;;;;-145.79;38.11;78413.91;5303607;28;20020;-75
2023/05/18 11:29:47;;;;;;;25.48;17.80;;;;;;;-145.79;38.25;78420.28;5303402;28;20536;-74
2023/05/18 11:32:31;;;;;;;7.57;5.38;;;;;;;-145.79;38.05;78420.28;5303351;28;20020;-75
2023/05/18 11:35:07;;;;;;;12.38;5.47;;;;;;;-145.79;38.23;78428.75;5303398;28;20110;-75
2023/05/18 11:37:38;;;;;;;10.40;7.50;;;;;;;-145.79;38.23;78416.03;5324292;28;20020;-73
2023/05/18 11:40:12;;;;;;;14.88;6.65;;;;;;;-145.79;37.70;78418.16;5324141;28;20144;-75
2023/05/18 11:42:57;;;;;;;10.25;5.38;;;;;;;-145.79;38.25;78399.06;5324707;28;20107;-76
2023/05/18 11:45:28;;;;;;;9.52;4.97;;;;;;;-145.79;37.88;78403.31;5324181;28;20023;-75
2023/05/18 11:48:01;;;;;;;8.07;4.80;;;;;;;-145.79;38.80;78407.53;5311830;28;20104;-76
2023/05/18 11:50:33;;;;;;;10.85;4.75;;;;;;;-145.79;38.30;78375.75;5321957;28;20052;-76
2023/05/18 11:53:04;;;;;;;6.32;5.22;;;;;;;-145.79;39.42;78367.25;5323858;28;20521;-77
2023/05/18 11:55:39;;;;;;;8.88;5.43;;;;;;;-145.79;38.56;78373.63;5320390;28;20020;-77
2023/05/18 11:58:13;;;;;;;8.48;4.78;;;;;;;-145.79;38.91;78348.19;5313181;28;20115;-73
2023/05/18 12:00:46;;;;;;;25.38;20.55;;;;;;;-145.79;38.32;78354.53;5310785;28;20069;-74
2023/05/18 12:03:23;;;;;;;7.53;4.97;;;;;;;-145.79;38.70;78326.97;5323398;28;20031;-75
2023/05/18 12:06:00;;;;;;;9.23;4.97;;;;;;;-145.79;38.38;78290.94;5305872;28;20704;-75
2023/05/18 12:08:31;;;;;;;11.48;5.40;;;;;;;-145.79;37.94;78276.09;5304529;28;20104;-75
2023/05/18 12:11:03;;;;;;;8.02;4.65;;;;;;;-145.79;37.21;78271.84;5307307;28;20496;-75
2023/05/18 12:13:35;;;;;;;9.15;4.40;;;;;;;-145.79;36.38;78299.41;5306353;28;20479;-76
2023/05/18 12:16:07;;;;;;;16.08;13.13;;;;;;;-145.79;37.58;78271.84;5307518;28;20020;-76
2023/05/18 12:18:38;;;;;;;10.18;5.53;;;;;;;-145.79;36.40;78278.22;5326045;28;20019;-76
2023/05/18 12:21:09;;;;;;;10.43;4.45;;;;;;;-145.79;36.99;78233.69;5326934;28;20030;-75
2023/05/18 12:23:41;;;;;;;9.82;4.80;;;;;;;-145.79;36.46;78229.47;5314195;28;20020;-75
2023/05/18 12:26:13;;;;;;;8.98;4.53;;;;;;;-145.79;36.05;78252.78;5314242;28;20055;-76
2023/05/18 12:28:45;;;;;;;7.50;4.72;;;;;;;-145.79;36.43;78250.66;5327440;28;20039;-72
2023/05/18 12:31:16;;;;;;;9.43;5.35;;;;;;;-145.79;35.95;78237.94;5314034;28;20436;-71
2023/05/18 12:33:49;;;;;;;9.00;5.07;;;;;;;-145.79;37.04;78216.72;5306739;28;20081;-72
2023/05/18 12:36:21;;;;;;;6.38;4.30;;;;;;;-145.79;36.26;78199.78;5306191;28;20020;-72
2023/05/18 12:39:02;;;;;;;12.43;9.18;;;;;;;-145.79;36.46;78182.81;5306556;28;20497;-72
2023/05/18 12:41:34;;;;;;;8.07;5.18;;;;;;;-145.79;35.98;78199.78;5305217;28;20493;-75
2023/05/18 12:44:05;;;;;;;10.02;5.22;;;;;;;-145.79;36.39;78191.28;5306518;28;20027;-75
2023/05/18 12:46:36;;;;;;;11.38;5.25;;;;;;;-145.79;36.08;78184.94;5306725;28;20497;-75
2023/05/18 12:49:09;;;;;;;11.52;7.05;;;;;;;-145.79;35.93;78182.81;5305959;28;20058;-77
2023/05/18 12:51:40;;;;;;;8.88;4.70;;;;;;;-145.79;36.23;78155.25;5306782;28;20026;-75
2023/05/18 12:54:11;;;;;;;6.95;4.32;;;;;;;-145.79;35.67;78148.91;5306785;28;20099;-76
2023/05/18 12:56:59;;;;;;;8.73;5.25;;;;;;;-145.79;35.31;78161.63;5311672;28;20068;-75
2023/05/18 12:59:30;;;;;;;9.07;4.72;;;;;;;-145.79;35.54;78155.25;5327890;28;20370;-75
2023/05/18 13:02:02;;;;;;;11.60;5.32;;;;;;;-145.79;36.00;78157.38;5328026;28;20077;-75
2023/05/18 13:04:36;;;;;;;7.55;4.85;;;;;;;-145.79;35.58;78153.13;5326512;28;20027;-76
2023/05/18 13:07:10;;;;;;;9.23;5.25;;;;;;;-145.79;35.90;78153.13;5327543;28;20028;-77
2023/05/18 13:09:48;;;;;;;9.50;5.13;;;;;;;-145.79;36.13;78153.13;5327045;28;20036;-78
2023/05/18 13:12:34;;;;;;;10.35;5.22;;;;;;;-145.79;35.74;78134.06;5326431;28;20036;-75
2023/05/18 13:15:22;;;;;;;7.20;5.10;;;;;;;-145.79;35.75;78117.09;5326205;28;20079;-74
2023/05/18 13:18:01;;;;;;;8.77;4.95;;;;;;;-145.79;35.59;78110.72;5326699;28;20028;-74
2023/05/18 13:20:49;;;;;;;8.73;4.60;;;;;;;-145.79;35.56;78104.38;5327220;28;20055;-75
2023/05/18 13:23:28;;;;;;;8.75;4.70;;;;;;;-145.79;35.49;78098.00;5326362;28;20039;-75
2023/05/18 13:25:59;;;;;;;7.82;4.88;;;;;;;-145.79;35.95;78081.06;5326795;28;20591;-74
2023/05/18 13:28:31;;;;;;;8.23;5.07;;;;;;;-145.79;35.45;78059.84;5313463;28;20020;-75
2023/05/18 13:31:02;;;;;;;6.63;4.85;;;;;;;-145.79;34.78;78100.13;5304374;28;20031;-73
2023/05/18 13:33:33;;;;;;;8.77;5.28;;;;;;;-145.79;34.56;78074.69;5305744;28;20031;-73
2023/05/18 13:36:05;;;;;;;8.70;5.20;;;;;;;-145.79;34.58;78089.53;5305481;28;20032;-73
2023/05/18 13:38:36;;;;;;;8.27;4.80;;;;;;;-145.79;35.00;78076.81;5304669;28;20022;-74
2023/05/18 13:41:13;;;;;;;8.02;5.13;;;;;;;-145.79;35.21;78034.41;5305340;28;20459;-73
2023/05/18 13:43:45;;;;;;;9.85;5.10;;;;;;;-145.79;34.36;78030.19;5305386;28;20024;-74
2023/05/18 13:46:17;;;;;;;8.80;4.20;;;;;;;-145.79;35.08;77992.00;5304388;28;20494;-74
2023/05/18 13:48:48;;;;;;;10.75;4.78;;;;;;;-145.79;34.02;77979.28;5319937;28;20462;-73
2023/05/18 13:51:19;;;;;;;8.18;4.38;;;;;;;-145.79;33.82;77958.09;5326567;28;20028;-73
2023/05/18 13:53:51;;;;;;;7.93;5.35;;;;;;;-145.79;33.56;77964.47;5325692;28;20020;-74
2023/05/18 13:56:22;;;;;;;6.38;4.60;;;;;;;-145.79;34.02;77962.34;5325991;28;20039;-73
2023/05/18 13:58:54;;;;;;;11.65;7.68;;;;;;;-145.79;33.89;77968.69;5304509;28;20448;-73
2023/05/18 14:01:25;;;;;;;19.17;9.82;;;;;;;-145.79;34.18;77970.81;5306252;28;20028;-73
2023/05/18 14:03:57;;;;;;;9.23;5.55;;;;;;;-145.79;34.40;77962.34;5325866;28;20424;-73
2023/05/18 14:06:31;;;;;;;10.52;5.03;;;;;;;-145.79;34.01;77994.13;5304442;28;20081;-73
2023/05/18 14:09:02;;;;;;;7.88;4.30;;;;;;;-145.79;34.20;77962.34;5304889;28;20122;-73
2023/05/18 14:11:35;;;;;;;9.88;4.00;;;;;;;-145.79;34.10;77924.19;5304976;28;20032;-72
2023/05/18 14:14:06;;;;;;;9.10;4.20;;;;;;;-145.79;34.14;77888.13;5304398;28;20028;-74
2023/05/18 14:16:38;;;;;;;6.00;4.30;;;;;;;-145.79;33.80;77877.53;5304676;28;20432;-73
2023/05/18 14:19:09;;;;;;;7.13;4.28;;;;;;;-145.79;33.64;77858.47;5304840;28;20020;-74
2023/05/18 14:21:40;;;;;;;10.85;6.63;;;;;;;-145.79;33.48;77877.53;5303849;28;20521;-74
2023/05/18 14:24:13;;;;;;;15.25;8.73;;;;;;;-145.79;34.05;77871.19;5304612;28;20055;-75
2023/05/18 14:26:52;;;;;;;5.90;4.03;;;;;;;-145.79;33.86;77886.00;5304326;28;20475;-74
2023/05/18 14:29:23;;;;;;;8.48;3.70;;;;;;;-145.79;33.39;77862.69;5304766;28;20479;-74
2023/05/18 14:31:54;;;;;;;20.05;12.05;;;;;;;-145.79;33.54;77869.06;5304059;28;20166;-74
2023/05/18 14:34:26;;;;;;;9.43;4.63;;;;;;;-145.79;33.26;77896.63;5303744;28;20047;-74
2023/05/18 14:36:57;;;;;;;7.20;4.50;;;;;;;-145.79;33.54;77881.78;5304650;28;20039;-74
2023/05/18 14:39:28;;;;;;;8.10;4.00;;;;;;;-145.79;33.07;77909.34;5316875;28;20036;-73
2023/05/18 14:42:00;;;;;;;8.07;3.90;;;;;;;-145.79;33.66;77911.47;5324748;28;20062;-73
2023/05/18 14:44:31;;;;;;;7.03;4.60;;;;;;;-145.79;33.35;77892.38;5325601;28;20042;-73
2023/05/18 14:47:02;;;;;;;14.75;8.43;;;;;;;-145.79;33.31;77881.78;5325258;28;20031;-73
2023/05/18 14:49:34;;;;;;;25.88;21.50;;;;;;;-145.79;32.91;77892.38;5309459;28;20542;-73
2023/05/18 14:52:05;;;;;;;19.17;4.85;;;;;;;-145.79;33.60;77886.00;5304136;28;20059;-74
2023/05/18 14:54:36;;;;;;;12.73;7.32;;;;;;;-145.79;33.31;77883.91;5304061;28;20024;-74
2023/05/18 14:57:08;;;;;;;11.57;5.35;;;;;;;-145.79;33.36;77873.31;5320560;28;20031;-74
2023/05/18 14:59:39;;;;;;;8.75;4.53;;;;;;;-145.79;33.59;77894.50;5325247;28;20019;-74
2023/05/18 15:02:10;;;;;;;6.25;3.88;;;;;;;-145.79;33.85;77875.41;5324155;28;20024;-74
2023/05/18 15:04:44;;;;;;;8.75;4.40;;;;;;;-145.79;33.25;77869.06;5325272;28;20033;-74
2023/05/18 15:07:16;;;;;;;22.35;15.35;;;;;;;-145.79;33.77;77890.25;5325290;28;20475;-74
2023/05/18 15:09:47;;;;;;;11.68;4.68;;;;;;;-145.79;33.55;77919.94;5324549;28;20098;-74
2023/05/18 15:12:20;;;;;;;9.30;4.38;;;;;;;-145.79;33.96;77907.22;5321655;28;20097;-75
2023/05/18 15:14:51;;;;;;;8.05;5.15;;;;;;;-145.79;34.22;77915.69;5304010;28;20375;-73
2023/05/18 15:17:23;;;;;;;9.00;4.65;;;;;;;-145.79;34.08;77936.91;5302871;28;20026;-74
2023/05/18 15:19:54;;;;;;;8.77;5.20;;;;;;;-145.79;33.98;77936.91;5304147;28;20026;-74
2023/05/18 15:22:25;;;;;;;7.45;4.25;;;;;;;-145.79;34.46;77930.53;5303388;28;20055;-75
2023/05/18 15:24:59;;;;;;;8.70;4.22;;;;;;;-145.79;34.04;77960.22;5303035;28;20016;-74
2023/05/18 15:27:30;;;;;;;7.90;4.07;;;;;;;-145.79;34.53;77936.91;5308752;28;20022;-74
2023/05/18 15:30:05;;;;;;;11.25;5.53;;;;;;;-145.79;34.22;77941.13;5311751;28;20024;-73
2023/05/18 15:32:41;;;;;;;7.43;4.35;;;;;;;-145.79;34.18;77932.66;5324581;28;20024;-73
2023/05/18 15:35:14;;;;;;;9.20;4.82;;;;;;;-145.79;33.72;77915.69;5325146;28;20094;-74
2023/05/18 15:37:46;;;;;;;8.63;4.32;;;;;;;-145.79;33.47;77907.22;5316135;28;20043;-74
2023/05/18 15:40:20;;;;;;;8.50;4.70;;;;;;;-145.79;33.24;77936.91;5303626;28;20021;-74
2023/05/18 15:42:51;;;;;;;8.45;4.55;;;;;;;-145.79;33.42;77939.00;5302394;28;20100;-74
2023/05/18 15:45:23;;;;;;;6.97;4.38;;;;;;;-145.79;33.24;77945.38;5308516;28;20065;-73
2023/05/18 15:47:57;;;;;;;6.32;3.92;;;;;;;-145.79;34.08;77934.78;5310055;28;20078;-72
2023/05/18 15:50:28;;;;;;;6.38;4.05;;;;;;;-145.79;33.43;77930.53;5307806;28;20028;-74
2023/05/18 15:53:00;;;;;;;7.28;4.22;;;;;;;-145.79;33.94;77934.78;5317536;28;20016;-73
2023/05/18 15:55:31;;;;;;;8.25;4.75;;;;;;;-145.79;33.93;77958.09;5328488;28;20102;-74
2023/05/18 15:58:02;;;;;;;7.68;3.90;;;;;;;-145.79;33.73;77947.50;5312269;28;20120;-74
2023/05/18 16:00:34;;;;;;;13.60;8.65;;;;;;;-145.79;34.08;77947.50;5307440;28;20573;-74
2023/05/18 16:03:05;;;;;;;7.97;5.38;;;;;;;-145.79;33.94;77945.38;5313275;28;20020;-73
2023/05/18 16:05:37;;;;;;;9.43;4.97;;;;;;;-145.79;33.25;77968.69;5320715;28;20079;-73
2023/05/18 16:08:08;;;;;;;5.75;3.85;;;;;;;-145.79;33.41;77975.06;5326999;28;20027;-74
2023/05/18 16:10:40;;;;;;;7.80;4.65;;;;;;;-145.79;33.32;77972.94;5307645;28;20023;-73
2023/05/18 16:13:11;;;;;;;8.27;4.53;;;;;;;-145.79;33.29;77970.81;5306457;28;20020;-73
2023/05/18 16:15:42;;;;;;;8.55;4.25;;;;;;;-145.79;33.67;77964.47;5306984;28;20028;-72
2023/05/18 16:18:14;;;;;;;7.35;4.40;;;;;;;-145.79;33.41;77983.53;5314614;28;20028;-71
2023/05/18 16:20:50;;;;;;;9.18;4.97;;;;;;;-145.79;33.06;77972.94;5311487;28;20021;-73
2023/05/18 16:23:23;;;;;;;6.80;3.80;;;;;;;-145.79;33.18;77966.56;5306962;28;20509;-73
2023/05/18 16:25:58;;;;;;;5.47;4.85;;;;;;;-145.79;33.47;77970.81;5320555;28;20019;-73
2023/05/18 16:28:33;;;;;;;9.48;4.55;;;;;;;-145.79;33.63;77966.56;5313657;28;20034;-73
2023/05/18 16:31:10;;;;;;;9.10;4.75;;;;;;;-145.79;34.18;77966.56;5309775;28;20020;-73
2023/05/18 16:33:41;;;;;;;6.05;4.22;;;;;;;-145.79;34.13;77975.06;5326723;28;20032;-73
2023/05/18 16:36:12;;;;;;;10.02;4.28;;;;;;;-145.79;33.64;77966.56;5317418;28;20553;-73
2023/05/18 16:38:44;;;;;;;8.82;4.88;;;;;;;-145.79;33.57;77966.56;5307007;28;20020;-73
2023/05/18 16:41:16;;;;;;;9.50;5.22;;;;;;;-145.79;34.00;77953.84;5306745;28;20125;-73
2023/05/18 16:43:47;;;;;;;9.15;5.22;;;;;;;-145.79;33.37;77953.84;5318439;28;20031;-73
2023/05/18 16:46:19;;;;;;;8.80;5.40;;;;;;;-145.79;33.77;77970.81;5328083;28;20466;-73
2023/05/18 16:48:50;;;;;;;8.38;5.22;;;;;;;-145.79;34.42;77945.38;5322786;28;20124;-73
2023/05/18 16:51:26;;;;;;;7.05;4.43;;;;;;;-145.79;33.63;77941.13;5312886;28;20031;-73
2023/05/18 16:53:58;;;;;;;7.35;4.13;;;;;;;-145.79;33.52;77939.00;5307708;28;20028;-73
